Time;durP1;ratioP1;P1;durP2;ratioP2;P2;SDS_P1;SDS_P2;PMS_P1;PMS_P2;Temp;Humidity;BMP_temperature;BMP_pressure;BME280_temperature;BME280_humidity;BME280_pressure;Samples;Min_cycle;Max_cycle;Signal;HPM_P1;HPM_P2
2023/02/24 00:02:04;;;;;;;12.20;6.13;;;4.50;91.00;;;;;;5069313;28;20213;-71
2023/02/24 00:04:34;;;;;;;11.38;6.03;;;4.60;90.90;;;;;;5071738;28;20189;-71
2023/02/24 00:07:02;;;;;;;9.55;6.15;;;4.50;91.00;;;;;;5053771;28;20218;-71
2023/02/24 00:09:33;;;;;;;12.00;5.70;;;4.50;90.90;;;;;;5051680;28;20194;-72
2023/02/24 00:12:02;;;;;;;9.93;6.10;;;4.50;90.70;;;;;;5069156;28;20220;-71
2023/02/24 00:14:32;;;;;;;11.95;6.93;;;4.30;90.50;;;;;;5071813;28;20555;-71
2023/02/24 00:17:00;;;;;;;10.13;5.80;;;4.30;90.90;;;;;;5060502;28;20202;-71
2023/02/24 00:19:31;;;;;;;10.45;5.95;;;4.30;91.00;;;;;;5058123;28;20229;-71
2023/02/24 00:21:59;;;;;;;10.07;5.25;;;4.30;91.00;;;;;;5075458;28;20231;-71
2023/02/24 00:24:27;;;;;;;11.00;6.05;;;4.30;91.20;;;;;;5078504;28;20190;-71
2023/02/24 00:26:58;;;;;;;8.73;5.07;;;4.30;90.90;;;;;;5062158;28;20191;-72
2023/02/24 00:29:28;;;;;;;10.25;5.15;;;4.20;90.70;;;;;;5073373;28;20254;-71
2023/02/24 00:31:58;;;;;;;9.30;5.43;;;4.20;90.70;;;;;;5061126;28;20615;-71
2023/02/24 00:34:26;;;;;;;8.13;5.20;;;4.20;90.70;;;;;;5072846;28;20239;-74
2023/02/24 00:36:53;;;;;;;12.85;5.93;;;4.20;90.90;;;;;;5078124;28;20196;-71
2023/02/24 00:39:27;;;;;;;9.85;5.00;;;4.30;91.20;;;;;;5064197;28;20922;-71
2023/02/24 00:42:03;;;;;;;7.22;4.30;;;4.30;91.40;;;;;;5074477;28;20181;-71
2023/02/24 00:44:32;;;;;;;11.63;5.53;;;4.40;91.90;;;;;;5063677;28;20185;-71
2023/02/24 00:47:01;;;;;;;9.00;5.40;;;4.50;91.60;;;;;;5058233;28;20193;-73
2023/02/24 00:49:29;;;;;;;7.65;5.78;;;4.60;91.50;;;;;;5071160;28;20551;-71
2023/02/24 00:51:57;;;;;;;7.97;5.25;;;4.60;91.10;;;;;;5061415;28;20291;-71
2023/02/24 00:54:27;;;;;;;10.27;6.40;;;4.70;90.70;;;;;;5070016;28;20578;-71
2023/02/24 00:56:56;;;;;;;8.35;5.60;;;4.70;90.20;;;;;;5078228;28;20193;-71
2023/02/24 00:59:24;;;;;;;10.65;6.20;;;4.70;89.20;;;;;;5072331;28;20182;-71
2023/02/24 01:01:53;;;;;;;10.60;4.75;;;4.70;88.20;;;;;;5061795;28;20329;-71
2023/02/24 01:04:21;;;;;;;7.45;5.47;;;4.70;86.60;;;;;;5064012;28;20277;-71
2023/02/24 01:06:51;;;;;;;7.88;5.15;;;4.60;84.10;;;;;;5062784;28;20182;-71
2023/02/24 01:09:20;;;;;;;7.22;5.25;;;4.60;84.00;;;;;;5058178;28;20202;-71
2023/02/24 01:14:38;;;;;;;8.45;5.43;;;4.50;83.80;;;;;;5077964;28;20235;-71
2023/02/24 01:17:07;;;;;;;10.98;5.55;;;4.40;84.20;;;;;;5060669;28;20530;-71
2023/02/24 01:19:36;;;;;;;9.93;4.80;;;4.40;85.10;;;;;;5057675;28;20197;-72
2023/02/24 01:22:05;;;;;;;8.30;4.88;;;4.40;86.00;;;;;;5074699;28;20185;-71
2023/02/24 01:24:36;;;;;;;9.25;5.05;;;4.40;86.70;;;;;;5073289;28;20198;-71
2023/02/24 01:27:04;;;;;;;6.88;5.28;;;4.40;86.80;;;;;;5055479;28;20197;-71
2023/02/24 01:29:31;;;;;;;7.50;4.80;;;4.40;86.70;;;;;;5057738;28;20278;-75
2023/02/24 01:32:01;;;;;;;8.85;5.57;;;4.40;86.90;;;;;;5058147;28;20221;-71
2023/02/24 01:34:28;;;;;;;9.23;4.60;;;4.30;87.00;;;;;;5073881;28;20276;-74
2023/02/24 01:36:55;;;;;;;7.90;4.53;;;4.30;87.20;;;;;;5074513;28;20247;-71
2023/02/24 01:39:24;;;;;;;7.47;4.75;;;4.30;87.50;;;;;;5055795;28;20201;-71
2023/02/24 01:41:52;;;;;;;8.07;5.38;;;4.30;87.70;;;;;;5068985;28;20186;-71
2023/02/24 01:44:56;;;;;;;10.73;6.35;;;4.20;87.70;;;;;;5074346;28;20284;-71
2023/02/24 01:47:30;;;;;;;9.90;5.85;;;4.20;87.70;;;;;;5054880;28;20349;-71
2023/02/24 01:49:57;;;;;;;10.00;5.03;;;4.20;86.40;;;;;;5053949;28;20194;-71
2023/02/24 01:52:29;;;;;;;6.85;4.80;;;4.10;84.60;;;;;;5072793;28;20618;-71
2023/02/24 01:55:01;;;;;;;6.32;5.00;;;3.90;83.00;;;;;;5074292;28;20197;-71
2023/02/24 01:57:33;;;;;;;9.60;5.43;;;3.80;83.00;;;;;;5054330;28;20222;-72
2023/02/24 02:00:10;;;;;;;11.70;5.00;;;3.70;83.40;;;;;;5054106;28;20263;-71
2023/02/24 02:02:45;;;;;;;9.35;4.88;;;3.70;84.50;;;;;;5033784;28;20226;-71
2023/02/24 02:05:13;;;;;;;7.00;4.97;;;3.60;85.50;;;;;;5034279;28;20190;-71
2023/02/24 02:07:42;;;;;;;7.43;5.18;;;3.50;86.60;;;;;;5033874;28;20201;-71
2023/02/24 02:10:10;;;;;;;9.55;5.63;;;3.50;87.30;;;;;;5034038;28;20614;-73
2023/02/24 02:12:43;;;;;;;10.82;4.97;;;3.40;87.60;;;;;;5034034;28;20222;-71
2023/02/24 02:15:13;;;;;;;10.93;5.82;;;3.40;88.00;;;;;;5033994;28;20200;-71
2023/02/24 02:17:51;;;;;;;7.97;5.18;;;3.40;88.10;;;;;;5073033;28;20203;-71
2023/02/24 02:20:54;;;;;;;8.60;4.72;;;3.30;88.20;;;;;;5072112;28;20215;-71
2023/02/24 02:23:46;;;;;;;9.18;5.32;;;3.30;88.60;;;;;;5053571;28;20560;-71
2023/02/24 02:26:31;;;;;;;10.40;5.88;;;3.30;88.40;;;;;;5054558;28;20193;-71
2023/02/24 02:29:28;;;;;;;11.23;5.13;;;3.30;87.80;;;;;;5053399;28;20189;-71
2023/02/24 02:32:18;;;;;;;6.47;5.03;;;3.30;88.10;;;;;;5054022;28;20256;-71
2023/02/24 02:34:54;;;;;;;7.10;4.40;;;3.30;88.10;;;;;;5053489;28;20193;-75
2023/02/24 02:37:30;;;;;;;8.05;4.88;;;3.30;87.70;;;;;;5033471;28;20251;-71
2023/02/24 02:40:15;;;;;;;11.35;5.68;;;3.30;87.50;;;;;;5033795;28;20198;-72
2023/02/24 02:42:46;;;;;;;6.63;4.55;;;3.30;87.80;;;;;;5073033;28;20196;-71
2023/02/24 02:45:18;;;;;;;10.85;5.95;;;3.30;88.10;;;;;;5070997;28;20683;-71
2023/02/24 02:47:52;;;;;;;8.43;5.10;;;3.20;88.60;;;;;;5052974;28;20295;-71
2023/02/24 02:50:26;;;;;;;10.82;4.80;;;3.30;88.80;;;;;;5055496;28;20645;-71
2023/02/24 02:52:58;;;;;;;8.93;5.00;;;3.20;88.80;;;;;;5072705;28;20224;-71
2023/02/24 02:55:33;;;;;;;9.25;5.20;;;3.20;88.80;;;;;;5069367;28;20188;-71
2023/02/24 02:58:03;;;;;;;15.43;5.53;;;3.20;88.70;;;;;;5052765;28;20196;-71
2023/02/24 03:00:37;;;;;;;14.32;7.07;;;3.20;88.70;;;;;;5056549;28;20180;-71
2023/02/24 03:03:11;;;;;;;6.20;4.40;;;3.20;89.10;;;;;;5072481;28;20216;-72
2023/02/24 03:05:45;;;;;;;7.57;5.22;;;3.20;89.60;;;;;;5068095;28;20216;-71
2023/02/24 03:08:18;;;;;;;6.55;4.53;;;3.20;90.00;;;;;;5052909;28;20200;-71
2023/02/24 03:10:49;;;;;;;11.43;4.95;;;3.20;89.50;;;;;;5053578;28;20199;-71
2023/02/24 03:13:19;;;;;;;14.02;4.63;;;3.20;89.80;;;;;;5052449;28;20275;-71
2023/02/24 03:15:48;;;;;;;6.43;4.05;;;3.10;90.40;;;;;;5063081;28;20201;-71
2023/02/24 03:18:20;;;;;;;7.30;5.03;;;3.20;90.50;;;;;;5065953;28;20227;-71
2023/02/24 03:20:53;;;;;;;9.27;5.82;;;3.20;90.20;;;;;;5061444;28;20192;-71
2023/02/24 03:23:26;;;;;;;9.07;5.45;;;3.10;90.20;;;;;;5065377;28;20258;-71
2023/02/24 03:25:57;;;;;;;8.50;4.82;;;3.00;90.30;;;;;;5052571;28;20198;-72
2023/02/24 03:28:32;;;;;;;8.43;4.80;;;3.10;90.90;;;;;;5058158;28;20275;-71
2023/02/24 03:31:05;;;;;;;6.63;4.47;;;3.10;91.00;;;;;;5070776;28;20319;-71
2023/02/24 03:33:37;;;;;;;7.95;4.88;;;3.10;91.40;;;;;;5064867;28;20217;-72
2023/02/24 03:36:07;;;;;;;9.02;5.32;;;3.10;91.30;;;;;;5051848;28;20648;-71
2023/02/24 03:38:37;;;;;;;8.20;5.25;;;3.10;91.10;;;;;;5058022;28;20180;-71
2023/02/24 03:41:09;;;;;;;8.43;4.68;;;3.10;91.10;;;;;;5059963;28;20716;-71
2023/02/24 03:43:41;;;;;;;12.05;5.70;;;3.10;91.10;;;;;;5057744;28;20183;-71
2023/02/24 03:46:08;;;;;;;9.70;4.45;;;3.20;91.20;;;;;;5072269;28;20200;-71
2023/02/24 03:48:43;;;;;;;6.55;5.05;;;3.20;91.00;;;;;;5066569;28;20185;-71
2023/02/24 03:51:15;;;;;;;6.00;3.97;;;3.10;90.60;;;;;;5063322;28;20202;-71
2023/02/24 03:53:52;;;;;;;7.80;4.18;;;3.20;90.20;;;;;;5066397;28;20261;-71
2023/02/24 03:56:39;;;;;;;5.95;3.92;;;3.10;89.80;;;;;;5051978;28;20203;-71
2023/02/24 03:59:17;;;;;;;7.43;3.90;;;3.10;89.30;;;;;;5059507;28;20534;-71
2023/02/24 04:01:56;;;;;;;6.05;3.78;;;3.10;89.10;;;;;;5054698;28;20284;-71
2023/02/24 04:04:31;;;;;;;5.88;3.67;;;3.00;88.50;;;;;;5071542;28;20192;-71
2023/02/24 04:07:09;;;;;;;6.53;4.75;;;3.10;87.70;;;;;;5071755;28;20189;-71
2023/02/24 04:09:42;;;;;;;5.75;3.33;;;3.00;87.50;;;;;;5031945;28;20284;-71
2023/02/24 04:12:18;;;;;;;6.43;4.20;;;2.90;85.20;;;;;;5071027;28;20185;-71
2023/02/24 04:14:50;;;;;;;5.72;4.00;;;2.90;84.30;;;;;;5072189;28;20184;-71
2023/02/24 04:17:23;;;;;;;5.18;3.65;;;2.80;84.60;;;;;;5071602;28;20196;-71
2023/02/24 04:19:55;;;;;;;6.80;4.70;;;2.70;84.90;;;;;;5071398;28;20191;-71
2023/02/24 04:22:27;;;;;;;7.53;4.55;;;2.70;86.00;;;;;;5032087;28;20201;-71
2023/02/24 04:24:58;;;;;;;7.15;4.40;;;2.70;89.20;;;;;;5031851;28;20205;-72
2023/02/24 04:27:28;;;;;;;10.45;5.72;;;2.70;90.30;;;;;;5042392;28;20556;-71
2023/02/24 04:29:59;;;;;;;7.25;4.50;;;2.70;90.50;;;;;;5051405;28;20229;-72
2023/02/24 04:32:29;;;;;;;14.50;5.47;;;2.80;90.90;;;;;;5071961;28;22097;-71
2023/02/24 04:35:02;;;;;;;8.00;5.00;;;2.80;91.20;;;;;;5071263;28;20203;-73
2023/02/24 04:37:32;;;;;;;8.65;6.60;;;2.90;91.50;;;;;;5031780;28;20685;-71
2023/02/24 04:40:00;;;;;;;7.80;5.53;;;2.90;91.10;;;;;;5033067;28;20718;-73
2023/02/24 04:42:28;;;;;;;10.45;5.22;;;3.00;91.30;;;;;;5071687;28;20600;-74
2023/02/24 04:44:57;;;;;;;11.05;6.00;;;3.00;91.10;;;;;;5071640;28;20627;-71
2023/02/24 04:47:27;;;;;;;9.70;5.82;;;3.00;91.30;;;;;;5071135;28;20195;-71
2023/02/24 04:49:56;;;;;;;10.02;5.35;;;3.10;91.40;;;;;;5071234;28;20200;-75
2023/02/24 04:52:23;;;;;;;10.45;5.45;;;3.20;91.50;;;;;;5071450;28;20680;-71
2023/02/24 04:54:51;;;;;;;9.35;5.82;;;3.30;91.50;;;;;;5071043;28;20660;-71
2023/02/24 04:57:19;;;;;;;6.15;4.13;;;3.40;90.90;;;;;;5052113;28;20603;-71
2023/02/24 04:59:46;;;;;;;10.07;5.35;;;3.40;90.60;;;;;;5051571;28;20251;-71
2023/02/24 05:02:14;;;;;;;12.77;5.50;;;3.50;90.70;;;;;;5069646;28;20350;-70
2023/02/24 05:04:43;;;;;;;10.05;5.50;;;3.50;90.90;;;;;;5060935;28;20182;-71
2023/02/24 05:07:14;;;;;;;8.65;5.40;;;3.60;90.90;;;;;;5055038;28;20197;-71
2023/02/24 05:09:42;;;;;;;8.30;5.70;;;3.60;90.50;;;;;;5064032;28;20193;-71
2023/02/24 05:12:10;;;;;;;9.10;5.30;;;3.60;90.20;;;;;;5057606;28;20603;-72
2023/02/24 05:14:38;;;;;;;6.70;4.68;;;3.70;90.00;;;;;;5054844;28;20637;-71
2023/02/24 05:17:06;;;;;;;7.28;4.82;;;3.70;89.80;;;;;;5065786;28;20189;-71
2023/02/24 05:22:18;;;;;;;11.60;5.75;;;3.70;89.90;;;;;;5052619;28;20305;-71
2023/02/24 05:24:46;;;;;;;9.35;5.05;;;3.70;90.00;;;;;;5055478;28;20566;-71
2023/02/24 05:27:16;;;;;;;6.22;4.53;;;3.80;90.20;;;;;;5074808;28;20285;-71
2023/02/24 05:29:44;;;;;;;8.57;5.68;;;3.80;89.90;;;;;;5074621;28;20232;-74
2023/02/24 05:32:11;;;;;;;8.00;4.20;;;3.80;89.90;;;;;;5034621;28;20654;-70
2023/02/24 05:34:39;;;;;;;10.45;4.75;;;3.80;90.30;;;;;;5072050;28;20216;-71
2023/02/24 05:37:09;;;;;;;7.25;4.30;;;3.90;90.40;;;;;;5034730;28;20277;-71
2023/02/24 05:39:37;;;;;;;5.75;4.28;;;4.00;90.50;;;;;;5070305;28;20667;-71
2023/02/24 05:42:05;;;;;;;9.95;4.70;;;4.10;90.60;;;;;;5074798;28;20193;-71
2023/02/24 05:44:35;;;;;;;10.30;4.65;;;4.10;90.50;;;;;;5057385;28;20590;-71
2023/02/24 05:47:04;;;;;;;10.23;6.20;;;4.10;90.70;;;;;;5054271;28;20189;-71
2023/02/24 05:49:33;;;;;;;6.55;3.85;;;4.10;90.00;;;;;;5069866;28;20185;-71
2023/02/24 05:52:06;;;;;;;9.18;4.50;;;4.10;89.60;;;;;;5074834;28;20194;-73
2023/02/24 05:54:36;;;;;;;9.30;5.05;;;4.10;89.50;;;;;;5058635;28;20279;-72
2023/02/24 05:57:07;;;;;;;10.95;5.18;;;4.10;89.70;;;;;;5073205;28;20190;-71
2023/02/24 05:59:36;;;;;;;6.82;4.40;;;4.10;90.00;;;;;;5059136;28;20201;-70
2023/02/24 06:02:06;;;;;;;7.45;4.45;;;4.00;89.80;;;;;;5054253;28;20229;-70
2023/02/24 06:04:49;;;;;;;7.32;3.80;;;4.00;90.00;;;;;;5054875;28;20309;-71
2023/02/24 06:07:18;;;;;;;7.82;3.95;;;4.00;90.10;;;;;;5054140;28;20226;-71
2023/02/24 06:09:48;;;;;;;9.02;4.70;;;4.00;89.90;;;;;;5055852;28;20603;-72
2023/02/24 06:12:16;;;;;;;6.32;4.38;;;4.00;89.90;;;;;;5054431;28;20282;-72
2023/02/24 06:14:45;;;;;;;9.15;4.03;;;4.00;89.90;;;;;;5067240;28;20210;-75
2023/02/24 06:17:13;;;;;;;7.57;5.20;;;4.00;89.60;;;;;;5055522;28;20557;-71
2023/02/24 06:19:42;;;;;;;7.88;4.90;;;4.00;89.90;;;;;;5053775;28;20201;-71
2023/02/24 06:22:13;;;;;;;8.57;5.97;;;4.00;89.60;;;;;;5053882;28;20549;-71
2023/02/24 06:24:43;;;;;;;9.48;5.28;;;4.00;88.80;;;;;;5069223;28;20204;-71
2023/02/24 06:27:16;;;;;;;11.27;6.13;;;4.00;89.20;;;;;;5057084;28;20197;-71
2023/02/24 06:29:45;;;;;;;7.15;4.88;;;4.00;89.50;;;;;;5069001;28;20182;-71
2023/02/24 06:32:13;;;;;;;7.15;5.35;;;4.00;89.80;;;;;;5073651;28;20201;-71
2023/02/24 06:34:40;;;;;;;11.00;4.32;;;4.10;90.00;;;;;;5058299;28;20258;-71
2023/02/24 06:37:10;;;;;;;11.85;5.35;;;4.10;90.10;;;;;;5068533;28;20189;-71
2023/02/24 06:39:37;;;;;;;10.68;5.10;;;4.20;90.00;;;;;;5059127;28;20274;-70
2023/02/24 06:42:07;;;;;;;6.53;5.03;;;4.20;90.00;;;;;;5053469;28;20213;-71
2023/02/24 06:44:37;;;;;;;11.27;5.55;;;4.20;89.30;;;;;;5065742;28;20551;-70
2023/02/24 06:47:07;;;;;;;9.85;4.80;;;4.30;88.90;;;;;;5058419;28;20190;-74
2023/02/24 06:49:35;;;;;;;12.27;5.53;;;4.30;89.00;;;;;;5065258;28;20217;-71
2023/02/24 06:52:03;;;;;;;10.50;5.75;;;4.30;89.00;;;;;;5073377;28;20186;-71
2023/02/24 06:54:34;;;;;;;8.98;6.75;;;4.30;89.40;;;;;;5062028;28;20214;-72
2023/02/24 06:57:02;;;;;;;8.02;5.55;;;4.40;90.00;;;;;;5057146;28;20217;-72
2023/02/24 06:59:30;;;;;;;8.13;5.88;;;4.50;90.00;;;;;;5052939;28;20186;-71
2023/02/24 07:02:00;;;;;;;14.95;7.05;;;4.60;90.10;;;;;;5052922;28;20221;-71
2023/02/24 07:04:29;;;;;;;12.25;8.38;;;4.70;90.00;;;;;;5052787;28;20244;-71
2023/02/24 07:07:01;;;;;;;9.57;6.38;;;4.80;89.60;;;;;;5056665;28;20194;-71
2023/02/24 07:09:29;;;;;;;6.50;4.55;;;5.00;89.40;;;;;;5052868;28;20232;-72
2023/02/24 07:12:01;;;;;;;6.00;4.00;;;5.20;89.30;;;;;;5053008;28;20230;-71
2023/02/24 07:14:30;;;;;;;10.43;5.22;;;5.30;88.80;;;;;;5064725;28;20316;-71
2023/02/24 07:16:58;;;;;;;9.48;5.30;;;5.50;87.90;;;;;;5052817;28;20213;-72
2023/02/24 07:19:27;;;;;;;7.07;4.45;;;5.60;87.60;;;;;;5053968;28;20231;-72
2023/02/24 07:21:59;;;;;;;6.97;3.80;;;5.70;87.30;;;;;;5062510;28;20209;-77
2023/02/24 07:24:34;;;;;;;8.23;4.15;;;5.80;86.60;;;;;;5052411;28;20221;-71
2023/02/24 07:27:04;;;;;;;5.28;3.75;;;5.80;85.60;;;;;;5052367;28;20186;-71
2023/02/24 07:29:32;;;;;;;6.32;3.63;;;5.80;85.50;;;;;;5047545;28;20613;-72
2023/02/24 07:32:02;;;;;;;5.57;4.03;;;5.90;85.90;;;;;;5051555;28;20198;-72
2023/02/24 07:34:30;;;;;;;7.65;4.20;;;6.00;86.00;;;;;;5052103;28;20225;-71
2023/02/24 07:37:05;;;;;;;8.35;3.75;;;6.10;86.10;;;;;;5051344;28;20213;-73
2023/02/24 07:39:33;;;;;;;8.00;4.47;;;6.20;85.70;;;;;;5051493;28;20201;-71
2023/02/24 07:42:00;;;;;;;5.75;4.25;;;6.40;85.20;;;;;;5051408;28;20193;-71
2023/02/24 07:44:28;;;;;;;6.68;3.78;;;6.40;85.00;;;;;;5052288;28;20273;-71
2023/02/24 07:46:57;;;;;;;5.38;3.58;;;6.50;84.40;;;;;;5051892;28;20285;-72
2023/02/24 07:49:28;;;;;;;5.65;3.63;;;6.60;84.40;;;;;;5051490;28;20199;-71
2023/02/24 07:51:56;;;;;;;9.27;3.90;;;6.70;83.70;;;;;;5051545;28;20617;-71
2023/02/24 07:54:28;;;;;;;7.75;4.95;;;6.80;83.80;;;;;;5050748;28;20271;-71
2023/02/24 07:56:57;;;;;;;6.43;4.50;;;7.00;84.30;;;;;;5050659;28;20182;-72
2023/02/24 07:59:27;;;;;;;10.15;4.75;;;7.40;84.50;;;;;;5051454;28;20198;-71
2023/02/24 08:01:55;;;;;;;4.90;3.50;;;7.60;83.50;;;;;;5050925;28;20688;-71
2023/02/24 08:04:24;;;;;;;6.15;3.60;;;7.90;82.40;;;;;;5052316;28;20248;-71
2023/02/24 08:06:55;;;;;;;5.28;3.80;;;8.00;80.90;;;;;;5051440;28;20248;-73
2023/02/24 08:12:10;;;;;;;10.82;3.75;;;8.20;80.30;;;;;;5011190;28;20544;-71
2023/02/24 08:14:43;;;;;;;5.75;3.75;;;8.30;80.80;;;;;;5032412;28;20313;-72
2023/02/24 08:17:15;;;;;;;7.47;3.92;;;8.50;81.00;;;;;;5032556;28;20202;-70
2023/02/24 08:19:42;;;;;;;5.25;3.50;;;8.70;80.70;;;;;;5032500;28;20214;-71
2023/02/24 08:22:19;;;;;;;5.57;3.75;;;9.00;79.60;;;;;;5032276;28;20244;-71
2023/02/24 08:24:49;;;;;;;4.60;3.13;;;9.60;79.50;;;;;;5032588;28;20202;-71
2023/02/24 08:27:23;;;;;;;8.25;4.28;;;10.90;75.70;;;;;;5032231;28;20190;-71
2023/02/24 08:30:01;;;;;;;7.15;4.88;;;12.10;69.30;;;;;;5032253;28;20229;-71
2023/02/24 08:32:32;;;;;;;10.30;4.18;;;12.50;65.10;;;;;;5032512;28;20575;-71
2023/02/24 08:35:02;;;;;;;9.35;5.40;;;13.90;62.60;;;;;;5032043;28;20218;-72
2023/02/24 08:37:38;;;;;;;8.55;5.20;;;15.10;57.70;;;;;;5037582;28;20252;-72
2023/02/24 08:40:28;;;;;;;8.45;4.82;;;17.10;53.90;;;;;;5061528;28;20229;-71
2023/02/24 08:42:57;;;;;;;8.23;5.40;;;19.50;47.50;;;;;;5062212;28;20195;-72
2023/02/24 08:45:25;;;;;;;7.10;3.90;;;20.90;41.40;;;;;;5060795;28;20444;-71
2023/02/24 08:47:59;;;;;;;10.53;7.13;;;20.70;39.90;;;;;;5061033;28;20784;-71
2023/02/24 08:50:30;;;;;;;17.30;8.23;;;20.10;39.00;;;;;;5062881;28;20475;-71
2023/02/24 08:52:57;;;;;;;16.93;10.20;;;19.10;40.00;;;;;;5064963;28;20766;-72
2023/02/24 08:55:31;;;;;;;13.33;9.20;;;18.20;40.40;;;;;;5062689;28;20587;-71
2023/02/24 08:58:01;;;;;;;9.83;7.67;;;17.40;42.50;;;;;;5065452;28;20447;-72
2023/02/24 09:00:47;;;;;;;10.00;7.27;;;16.90;44.10;;;;;;5065550;28;20803;-72
2023/02/24 09:03:26;;;;;;;14.10;8.17;;;16.50;44.20;;;;;;5063558;28;20473;-71
2023/02/24 09:05:58;;;;;;;14.40;7.30;;;15.90;45.30;;;;;;5063157;28;21132;-71
2023/02/24 09:08:31;;;;;;;9.20;6.70;;;15.50;45.90;;;;;;5063855;28;20473;-71
2023/02/24 09:11:00;;;;;;;11.07;6.70;;;15.10;46.60;;;;;;5062939;28;20199;-72
2023/02/24 09:13:31;;;;;;;9.30;6.73;;;14.90;47.30;;;;;;5063635;28;20543;-72
2023/02/24 09:16:00;;;;;;;8.77;5.63;;;14.70;47.80;;;;;;5063946;28;20488;-72
2023/02/24 09:18:37;;;;;;;9.40;6.10;;;14.50;48.50;;;;;;5062235;28;20476;-72
2023/02/24 09:24:25;;;;;;;12.25;6.00;;;14.30;50.30;;;;;;5042471;28;20206;-72
2023/02/24 09:26:57;;;;;;;10.50;6.40;;;14.40;50.70;;;;;;5063745;28;20667;-71
2023/02/24 09:29:33;;;;;;;7.47;5.63;;;14.80;50.30;;;;;;5065224;28;20197;-71
2023/02/24 09:32:04;;;;;;;10.17;6.53;;;15.30;50.00;;;;;;5062999;28;20695;-72
2023/02/24 09:34:32;;;;;;;12.47;4.97;;;15.90;48.80;;;;;;5065071;28;20485;-73
2023/02/24 09:37:02;;;;;;;9.37;5.60;;;16.90;48.20;;;;;;5065850;28;20986;-72
2023/02/24 09:39:57;;;;;;;10.20;4.80;;;19.50;46.40;;;;;;5065766;28;20908;-72
2023/02/24 09:42:31;;;;;;;8.97;5.63;;;22.70;38.70;;;;;;5062181;28;20440;-72
2023/02/24 09:45:10;;;;;;;8.50;4.20;;;26.10;33.20;;;;;;5061134;28;20552;-72
2023/02/24 09:47:55;;;;;;;6.53;3.63;;;27.20;29.10;;;;;;5062788;28;20445;-73
2023/02/24 09:50:44;;;;;;;9.23;3.50;;;29.30;27.10;;;;;;5063173;28;20474;-72
2023/02/24 09:53:17;;;;;;;8.07;3.90;;;30.70;23.50;;;;;;5063645;28;20444;-72
2023/02/24 09:56:03;;;;;;;10.37;4.27;;;30.30;22.50;;;;;;5067837;28;20479;-72
2023/02/24 09:58:39;;;;;;;7.87;4.00;;;28.60;22.90;;;;;;5066835;28;20443;-71
2023/02/24 10:01:22;;;;;;;10.03;4.30;;;26.20;24.70;;;;;;5065944;28;20511;-71
2023/02/24 10:04:03;;;;;;;7.77;4.60;;;24.20;26.70;;;;;;5062367;28;20888;-71
2023/02/24 10:06:35;;;;;;;8.77;5.10;;;22.60;27.90;;;;;;5066856;28;20479;-72
2023/02/24 10:09:12;;;;;;;10.33;5.53;;;21.40;29.60;;;;;;5065212;28;20796;-71
2023/02/24 10:11:52;;;;;;;6.83;4.47;;;20.50;31.40;;;;;;5069602;28;20440;-71
2023/02/24 10:14:25;;;;;;;6.23;4.50;;;19.80;32.10;;;;;;5064611;28;20940;-70
2023/02/24 10:17:21;;;;;;;7.93;4.80;;;19.20;33.80;;;;;;5060992;28;20444;-70
2023/02/24 10:19:43;;;;;;;6.93;4.40;;;18.70;35.10;;;;;;5069752;28;20432;-71
2023/02/24 10:22:27;;;;;;;8.57;5.23;;;18.40;35.80;;;;;;5070183;28;20793;-70
2023/02/24 10:25:09;;;;;;;6.47;4.00;;;18.20;36.20;;;;;;5068474;28;20526;-70
2023/02/24 10:27:51;;;;;;;11.13;4.70;;;18.10;36.40;;;;;;5069326;28;20447;-70
2023/02/24 10:30:40;;;;;;;15.13;5.00;;;18.30;36.30;;;;;;5060487;28;20548;-70
2023/02/24 10:33:25;;;;;;;6.77;4.90;;;18.70;37.90;;;;;;5068231;28;20876;-71
2023/02/24 10:36:07;;;;;;;9.37;5.53;;;20.00;35.80;;;;;;5064577;28;20483;-71
2023/02/24 10:38:36;;;;;;;7.87;4.50;;;20.50;34.20;;;;;;5066618;28;20440;-71
2023/02/24 10:41:05;;;;;;;12.60;4.87;;;21.00;33.80;;;;;;5070545;28;20440;-71
2023/02/24 10:43:44;;;;;;;7.03;5.03;;;22.20;33.80;;;;;;5065599;28;20436;-71
2023/02/24 10:46:24;;;;;;;10.83;4.70;;;22.90;30.50;;;;;;5070887;28;20556;-71
2023/02/24 10:48:59;;;;;;;9.23;5.30;;;22.80;30.00;;;;;;5064467;28;20451;-71
2023/02/24 10:51:30;;;;;;;7.13;4.63;;;22.70;30.10;;;;;;5070880;28;20848;-71
2023/02/24 10:54:21;;;;;;;9.10;4.80;;;22.60;30.20;;;;;;5070397;28;20510;-71
2023/02/24 10:57:06;;;;;;;11.27;5.07;;;22.30;30.70;;;;;;5071994;28;20641;-70
2023/02/24 10:59:57;;;;;;;7.50;4.93;;;21.90;31.30;;;;;;5051043;28;20526;-72
2023/02/24 11:02:31;;;;;;;7.30;4.20;;;21.40;31.00;;;;;;5052295;28;21049;-71
2023/02/24 11:05:23;;;;;;;13.17;5.63;;;20.70;31.40;;;;;;5052428;28;20440;-72
2023/02/24 11:07:54;;;;;;;9.47;4.73;;;20.20;33.00;;;;;;5049311;28;20445;-70
2023/02/24 11:10:31;;;;;;;8.93;4.50;;;19.80;33.60;;;;;;5049653;28;20531;-70
2023/02/24 11:18:34;;;;;;;10.90;6.53;;;20.20;34.30;;;;;;5053032;28;20927;-71
2023/02/24 11:21:04;;;;;;;7.60;4.33;;;20.00;34.40;;;;;;5051083;28;20535;-71
2023/02/24 11:23:35;;;;;;;7.97;4.90;;;19.60;35.10;;;;;;5056705;28;20447;-71
2023/02/24 11:26:06;;;;;;;11.63;4.90;;;19.10;36.10;;;;;;5055743;28;20832;-71
2023/02/24 11:29:05;;;;;;;6.27;4.20;;;18.70;37.00;;;;;;5053103;28;20469;-71
2023/02/24 11:31:44;;;;;;;8.00;4.57;;;18.30;37.70;;;;;;5052845;28;20922;-70
2023/02/24 11:34:23;;;;;;;7.07;4.57;;;18.00;38.30;;;;;;5052871;28;20518;-71
2023/02/24 11:36:59;;;;;;;10.70;5.43;;;17.70;38.70;;;;;;5052887;28;20923;-72
2023/02/24 11:39:45;;;;;;;12.17;5.87;;;17.50;39.50;;;;;;5052889;28;20443;-72
2023/02/24 11:42:19;;;;;;;13.30;5.83;;;17.30;39.70;;;;;;5052795;28;20491;-72
2023/02/24 11:44:52;;;;;;;8.90;4.90;;;17.10;40.20;;;;;;5052711;28;20459;-71
2023/02/24 11:47:25;;;;;;;6.63;4.30;;;17.00;40.40;;;;;;5052724;28;20532;-71
2023/02/24 11:50:00;;;;;;;11.00;5.20;;;16.90;40.70;;;;;;5052582;28;20444;-71
2023/02/24 11:52:32;;;;;;;12.70;7.50;;;16.80;41.10;;;;;;5052941;28;20436;-71
2023/02/24 11:55:04;;;;;;;13.57;6.60;;;16.80;41.40;;;;;;5052636;28;20538;-72
2023/02/24 11:57:38;;;;;;;12.47;5.50;;;16.80;41.70;;;;;;5052674;28;20437;-71
2023/02/24 12:00:14;;;;;;;8.67;4.73;;;16.60;41.80;;;;;;5052617;28;20962;-71
2023/02/24 12:02:47;;;;;;;11.80;7.00;;;16.60;42.20;;;;;;5051932;28;20511;-72
2023/02/24 12:05:19;;;;;;;9.87;4.53;;;16.60;42.40;;;;;;5052385;28;20477;-71
2023/02/24 12:07:52;;;;;;;8.90;5.10;;;16.70;42.50;;;;;;5053312;28;20449;-73
2023/02/24 12:10:24;;;;;;;9.90;5.20;;;16.70;42.10;;;;;;5052421;28;20436;-71
2023/02/24 12:12:59;;;;;;;10.70;5.67;;;16.50;42.00;;;;;;5068407;28;20431;-72
2023/02/24 12:15:29;;;;;;;8.67;4.83;;;16.40;42.50;;;;;;5050947;28;20551;-71
2023/02/24 12:18:04;;;;;;;10.07;5.27;;;16.30;43.00;;;;;;5052589;28;20855;-71
2023/02/24 12:20:39;;;;;;;10.00;6.50;;;16.30;43.80;;;;;;5051508;28;20780;-71
2023/02/24 12:23:16;;;;;;;12.93;5.60;;;16.40;43.30;;;;;;5052422;28;20451;-72
2023/02/24 12:26:00;;;;;;;8.57;5.03;;;16.50;43.10;;;;;;5049005;28;20794;-72
2023/02/24 12:28:41;;;;;;;11.37;4.70;;;16.60;43.00;;;;;;5041998;28;20432;-71
2023/02/24 12:31:20;;;;;;;12.30;5.87;;;16.70;43.30;;;;;;5071437;28;20439;-72
2023/02/24 12:34:01;;;;;;;9.20;6.00;;;16.70;43.50;;;;;;5061291;28;20438;-71
2023/02/24 12:36:44;;;;;;;12.40;5.27;;;16.80;43.10;;;;;;5061413;28;20480;-71
2023/02/24 12:39:17;;;;;;;9.37;5.87;;;16.90;43.10;;;;;;5059854;28;20559;-73
2023/02/24 12:41:55;;;;;;;10.77;6.27;;;16.90;42.90;;;;;;5061552;28;20992;-72
2023/02/24 12:44:31;;;;;;;8.00;6.10;;;16.90;43.00;;;;;;5059434;28;20441;-72
2023/02/24 12:47:07;;;;;;;12.07;6.20;;;16.70;42.90;;;;;;5047839;28;20441;-75
2023/02/24 12:49:51;;;;;;;9.27;5.30;;;16.50;43.60;;;;;;5054029;28;20527;-71
2023/02/24 12:52:27;;;;;;;11.80;4.90;;;16.40;43.80;;;;;;5063802;28;20474;-71
2023/02/24 12:55:05;;;;;;;13.03;6.17;;;16.30;44.40;;;;;;5031630;28;20469;-71
2023/02/24 12:57:43;;;;;;;9.73;5.90;;;16.20;44.80;;;;;;5043958;28;20540;-71
2023/02/24 13:00:17;;;;;;;10.83;5.00;;;16.10;44.50;;;;;;5051671;28;20473;-71
2023/02/24 13:02:53;;;;;;;7.90;5.10;;;16.00;44.80;;;;;;5070562;28;20460;-71
2023/02/24 13:05:34;;;;;;;15.17;6.70;;;15.80;45.50;;;;;;5045943;28;20436;-71
2023/02/24 13:11:27;;;;;;;13.40;5.20;;;15.50;47.20;;;;;;5029717;28;20786;-71
2023/02/24 13:14:01;;;;;;;8.73;5.57;;;15.40;48.10;;;;;;5051521;28;20456;-71
2023/02/24 13:16:29;;;;;;;10.83;5.47;;;15.30;48.40;;;;;;5051525;28;20580;-71
2023/02/24 13:19:06;;;;;;;10.63;6.20;;;15.30;49.20;;;;;;5052967;28;20953;-71
2023/02/24 13:21:34;;;;;;;8.90;5.60;;;15.20;49.60;;;;;;5053208;28;20539;-72
2023/02/24 13:24:03;;;;;;;7.97;5.43;;;15.20;50.00;;;;;;5055578;28;20534;-72
2023/02/24 13:26:32;;;;;;;12.37;5.47;;;15.20;50.00;;;;;;5056252;28;20523;-71
2023/02/24 13:29:01;;;;;;;9.37;6.80;;;15.20;50.20;;;;;;5056473;28;20533;-72
2023/02/24 13:31:43;;;;;;;11.97;6.70;;;15.10;50.00;;;;;;5058160;28;20860;-71
2023/02/24 13:34:15;;;;;;;8.97;6.00;;;15.10;50.10;;;;;;5059433;28;20442;-72
2023/02/24 13:36:50;;;;;;;11.30;7.60;;;15.00;50.10;;;;;;5059365;28;20533;-71
2023/02/24 13:39:28;;;;;;;17.10;6.70;;;15.00;50.70;;;;;;5062258;28;20450;-71
2023/02/24 13:42:06;;;;;;;11.47;6.70;;;15.00;51.80;;;;;;5061210;28;20803;-71